sensor_id;sensor_type;location;lat;lon;timestamp;temperature;humidity
14741;DHT22;7462;53.530;9.414;2022-08-19T00:01:45;20.30;99.90
14741;DHT22;7462;53.530;9.414;2022-08-19T00:04:21;20.30;99.90
14741;DHT22;7462;53.530;9.414;2022-08-19T00:06:51;20.30;99.90
14741;DHT22;7462;53.530;9.414;2022-08-19T00:09:21;20.30;99.90
14741;DHT22;7462;53.530;9.414;2022-08-19T00:11:50;20.30;99.90
14741;DHT22;7462;53.530;9.414;2022-08-19T00:14:19;20.20;99.90
14741;DHT22;7462;53.530;9.414;2022-08-19T00:16:49;20.20;99.90
14741;DHT22;7462;53.530;9.414;2022-08-19T00:19:18;20.20;99.90
14741;DHT22;7462;53.530;9.414;2022-08-19T00:21:46;20.20;99.90
14741;DHT22;7462;53.530;9.414;2022-08-19T00:24:16;20.20;99.90
14741;DHT22;7462;53.530;9.414;2022-08-19T00:26:45;20.20;99.90
14741;DHT22;7462;53.530;9.414;2022-08-19T00:29:16;20.20;99.90
14741;DHT22;7462;53.530;9.414;2022-08-19T00:31:45;20.20;99.90
14741;DHT22;7462;53.530;9.414;2022-08-19T00:34:17;20.20;99.90
14741;DHT22;7462;53.530;9.414;2022-08-19T00:36:45;20.20;99.90
14741;DHT22;7462;53.530;9.414;2022-08-19T00:39:17;20.10;99.90
14741;DHT22;7462;53.530;9.414;2022-08-19T00:41:46;20.10;99.90
14741;DHT22;7462;53.530;9.414;2022-08-19T00:44:18;20.10;99.90
14741;DHT22;7462;53.530;9.414;2022-08-19T00:46:50;20.10;99.90
14741;DHT22;7462;53.530;9.414;2022-08-19T00:49:28;20.10;99.90
14741;DHT22;7462;53.530;9.414;2022-08-19T00:52:01;20.10;99.90
14741;DHT22;7462;53.530;9.414;2022-08-19T00:54:31;20.10;99.90
14741;DHT22;7462;53.530;9.414;2022-08-19T00:57:02;20.10;99.90
14741;DHT22;7462;53.530;9.414;2022-08-19T00:59:35;20.10;99.90
14741;DHT22;7462;53.530;9.414;2022-08-19T01:02:24;20.10;99.90
14741;DHT22;7462;53.530;9.414;2022-08-19T01:04:53;20.10;99.90
14741;DHT22;7462;53.530;9.414;2022-08-19T01:07:22;20.00;99.90
14741;DHT22;7462;53.530;9.414;2022-08-19T01:09:52;20.00;99.90
14741;DHT22;7462;53.530;9.414;2022-08-19T01:12:20;20.00;99.90
14741;DHT22;7462;53.530;9.414;2022-08-19T01:14:49;20.00;99.90
14741;DHT22;7462;53.530;9.414;2022-08-19T01:17:18;20.00;99.90
14741;DHT22;7462;53.530;9.414;2022-08-19T01:19:49;20.00;99.90
14741;DHT22;7462;53.530;9.414;2022-08-19T01:22:26;20.00;99.90
14741;DHT22;7462;53.530;9.414;2022-08-19T01:25:00;20.00;99.90
14741;DHT22;7462;53.530;9.414;2022-08-19T01:27:38;20.00;99.90
14741;DHT22;7462;53.530;9.414;2022-08-19T01:30:12;20.00;99.90
14741;DHT22;7462;53.530;9.414;2022-08-19T01:32:41;20.00;99.90
14741;DHT22;7462;53.530;9.414;2022-08-19T01:35:13;20.00;99.90
14741;DHT22;7462;53.530;9.414;2022-08-19T01:37:49;20.00;99.90
14741;DHT22;7462;53.530;9.414;2022-08-19T01:40:50;20.00;99.90
14741;DHT22;7462;53.530;9.414;2022-08-19T01:43:19;19.90;99.90
14741;DHT22;7462;53.530;9.414;2022-08-19T01:45:47;19.90;99.90
14741;DHT22;7462;53.530;9.414;2022-08-19T01:48:16;19.80;99.90
14741;DHT22;7462;53.530;9.414;2022-08-19T01:50:44;19.80;99.90
14741;DHT22;7462;53.530;9.414;2022-08-19T01:53:47;19.80;99.90
14741;DHT22;7462;53.530;9.414;2022-08-19T01:56:16;19.80;99.90
14741;DHT22;7462;53.530;9.414;2022-08-19T01:58:49;19.80;99.90
14741;DHT22;7462;53.530;9.414;2022-08-19T02:01:20;19.80;99.90
14741;DHT22;7462;53.530;9.414;2022-08-19T02:03:48;19.80;99.90
14741;DHT22;7462;53.530;9.414;2022-08-19T02:06:17;19.80;99.90
14741;DHT22;7462;53.530;9.414;2022-08-19T02:08:54;19.80;99.90
14741;DHT22;7462;53.530;9.414;2022-08-19T02:11:27;19.80;99.90
14741;DHT22;7462;53.530;9.414;2022-08-19T02:13:57;19.80;99.90
14741;DHT22;7462;53.530;9.414;2022-08-19T02:16:26;19.80;99.90
14741;DHT22;7462;53.530;9.414;2022-08-19T02:18:54;19.70;99.90
14741;DHT22;7462;53.530;9.414;2022-08-19T02:21:23;19.70;99.90
14741;DHT22;7462;53.530;9.414;2022-08-19T02:23:53;19.80;99.90
14741;DHT22;7462;53.530;9.414;2022-08-19T02:26:22;19.70;99.90
14741;DHT22;7462;53.530;9.414;2022-08-19T02:28:50;19.70;99.90
14741;DHT22;7462;53.530;9.414;2022-08-19T02:31:20;19.70;99.90
14741;DHT22;7462;53.530;9.414;2022-08-19T02:33:52;19.70;99.90
14741;DHT22;7462;53.530;9.414;2022-08-19T02:36:24;19.70;99.90
14741;DHT22;7462;53.530;9.414;2022-08-19T02:38:55;19.70;99.90
14741;DHT22;7462;53.530;9.414;2022-08-19T02:41:25;19.70;99.90
14741;DHT22;7462;53.530;9.414;2022-08-19T02:43:54;19.70;99.90
14741;DHT22;7462;53.530;9.414;2022-08-19T02:46:46;19.70;99.90
14741;DHT22;7462;53.530;9.414;2022-08-19T02:49:17;19.70;99.90
14741;DHT22;7462;53.530;9.414;2022-08-19T02:51:46;19.70;99.90
14741;DHT22;7462;53.530;9.414;2022-08-19T02:54:16;19.70;99.90
14741;DHT22;7462;53.530;9.414;2022-08-19T02:56:44;19.70;99.90
14741;DHT22;7462;53.530;9.414;2022-08-19T02:59:13;19.70;99.90
14741;DHT22;7462;53.530;9.414;2022-08-19T03:01:42;19.60;99.90
14741;DHT22;7462;53.530;9.414;2022-08-19T03:04:13;19.60;99.90
14741;DHT22;7462;53.530;9.414;2022-08-19T03:06:44;19.60;99.90
14741;DHT22;7462;53.530;9.414;2022-08-19T03:09:13;19.60;99.90
14741;DHT22;7462;53.530;9.414;2022-08-19T03:11:43;19.50;99.90
14741;DHT22;7462;53.530;9.414;2022-08-19T03:14:14;19.50;99.90
14741;DHT22;7462;53.530;9.414;2022-08-19T03:16:45;19.50;99.90
14741;DHT22;7462;53.530;9.414;2022-08-19T03:19:16;19.50;99.90
14741;DHT22;7462;53.530;9.414;2022-08-19T03:21:45;19.40;99.90
14741;DHT22;7462;53.530;9.414;2022-08-19T03:24:14;19.40;99.90
14741;DHT22;7462;53.530;9.414;2022-08-19T03:26:50;19.40;99.90
14741;DHT22;7462;53.530;9.414;2022-08-19T03:29:19;19.40;99.90
14741;DHT22;7462;53.530;9.414;2022-08-19T03:31:58;19.40;99.90
14741;DHT22;7462;53.530;9.414;2022-08-19T03:34:30;19.40;99.90
14741;DHT22;7462;53.530;9.414;2022-08-19T03:37:04;19.40;99.90
14741;DHT22;7462;53.530;9.414;2022-08-19T03:39:33;19.40;99.90
14741;DHT22;7462;53.530;9.414;2022-08-19T03:42:05;19.40;99.90
14741;DHT22;7462;53.530;9.414;2022-08-19T03:44:53;19.40;99.90
14741;DHT22;7462;53.530;9.414;2022-08-19T03:47:21;19.50;99.90
14741;DHT22;7462;53.530;9.414;2022-08-19T03:49:50;19.50;99.90
14741;DHT22;7462;53.530;9.414;2022-08-19T03:52:18;19.50;99.90
14741;DHT22;7462;53.530;9.414;2022-08-19T03:54:46;19.50;99.90
14741;DHT22;7462;53.530;9.414;2022-08-19T03:57:16;19.40;99.90
14741;DHT22;7462;53.530;9.414;2022-08-19T03:59:44;19.40;99.90
14741;DHT22;7462;53.530;9.414;2022-08-19T04:02:13;19.40;99.90
14741;DHT22;7462;53.530;9.414;2022-08-19T04:04:42;19.40;99.90
14741;DHT22;7462;53.530;9.414;2022-08-19T04:07:13;19.40;99.90
14741;DHT22;7462;53.530;9.414;2022-08-19T04:09:43;19.40;99.90
14741;DHT22;7462;53.530;9.414;2022-08-19T04:12:12;19.40;99.90
14741;DHT22;7462;53.530;9.414;2022-08-19T04:14:41;19.40;99.90
14741;DHT22;7462;53.530;9.414;2022-08-19T04:17:10;19.40;99.90
14741;DHT22;7462;53.530;9.414;2022-08-19T04:19:40;19.30;99.90
14741;DHT22;7462;53.530;9.414;2022-08-19T04:22:10;19.30;99.90
14741;DHT22;7462;53.530;9.414;2022-08-19T04:24:38;19.20;99.90
14741;DHT22;7462;53.530;9.414;2022-08-19T04:27:07;19.20;99.90
14741;DHT22;7462;53.530;9.414;2022-08-19T04:29:35;19.20;99.90
14741;DHT22;7462;53.530;9.414;2022-08-19T04:32:07;19.20;99.90
14741;DHT22;7462;53.530;9.414;2022-08-19T04:34:37;19.20;99.90
14741;DHT22;7462;53.530;9.414;2022-08-19T04:37:26;19.10;99.90
14741;DHT22;7462;53.530;9.414;2022-08-19T04:40:04;19.10;99.90
14741;DHT22;7462;53.530;9.414;2022-08-19T04:42:50;19.10;99.90
14741;DHT22;7462;53.530;9.414;2022-08-19T04:45:20;19.10;99.90
14741;DHT22;7462;53.530;9.414;2022-08-19T04:47:54;19.10;99.90
14741;DHT22;7462;53.530;9.414;2022-08-19T04:50:44;19.10;99.90
14741;DHT22;7462;53.530;9.414;2022-08-19T04:53:12;19.10;99.90
14741;DHT22;7462;53.530;9.414;2022-08-19T04:55:41;19.10;99.90
14741;DHT22;7462;53.530;9.414;2022-08-19T04:58:09;19.10;99.90
14741;DHT22;7462;53.530;9.414;2022-08-19T05:00:38;19.20;99.90
14741;DHT22;7462;53.530;9.414;2022-08-19T05:03:08;19.20;99.90
14741;DHT22;7462;53.530;9.414;2022-08-19T05:05:39;19.20;99.90
14741;DHT22;7462;53.530;9.414;2022-08-19T05:08:11;19.30;99.90
14741;DHT22;7462;53.530;9.414;2022-08-19T05:10:41;19.30;99.90
14741;DHT22;7462;53.530;9.414;2022-08-19T05:13:09;19.30;99.90
14741;DHT22;7462;53.530;9.414;2022-08-19T05:15:37;19.30;99.90
14741;DHT22;7462;53.530;9.414;2022-08-19T05:18:05;19.30;99.90
14741;DHT22;7462;53.530;9.414;2022-08-19T05:20:52;19.20;99.90
14741;DHT22;7462;53.530;9.414;2022-08-19T05:23:38;19.30;99.90
14741;DHT22;7462;53.530;9.414;2022-08-19T05:26:07;19.40;99.90
14741;DHT22;7462;53.530;9.414;2022-08-19T05:28:37;19.40;99.90
14741;DHT22;7462;53.530;9.414;2022-08-19T05:31:05;19.40;99.90
14741;DHT22;7462;53.530;9.414;2022-08-19T05:33:33;19.40;99.90
14741;DHT22;7462;53.530;9.414;2022-08-19T05:36:03;19.50;99.90
14741;DHT22;7462;53.530;9.414;2022-08-19T05:38:32;19.50;99.90
14741;DHT22;7462;53.530;9.414;2022-08-19T05:41:00;19.50;99.90
14741;DHT22;7462;53.530;9.414;2022-08-19T05:43:29;19.50;99.90
14741;DHT22;7462;53.530;9.414;2022-08-19T05:45:57;19.50;99.90
14741;DHT22;7462;53.530;9.414;2022-08-19T05:48:26;19.40;99.90
14741;DHT22;7462;53.530;9.414;2022-08-19T05:50:54;19.30;99.90
14741;DHT22;7462;53.530;9.414;2022-08-19T05:53:25;19.30;99.90
14741;DHT22;7462;53.530;9.414;2022-08-19T05:55:53;19.40;99.90
14741;DHT22;7462;53.530;9.414;2022-08-19T05:58:23;19.40;99.90
14741;DHT22;7462;53.530;9.414;2022-08-19T06:00:53;19.40;99.90
14741;DHT22;7462;53.530;9.414;2022-08-19T06:03:22;19.40;99.90
14741;DHT22;7462;53.530;9.414;2022-08-19T06:05:50;19.40;99.90
14741;DHT22;7462;53.530;9.414;2022-08-19T06:08:21;19.30;99.90
14741;DHT22;7462;53.530;9.414;2022-08-19T06:11:17;19.30;99.90
14741;DHT22;7462;53.530;9.414;2022-08-19T06:13:47;19.40;99.90
14741;DHT22;7462;53.530;9.414;2022-08-19T06:16:17;19.30;99.90
14741;DHT22;7462;53.530;9.414;2022-08-19T06:18:50;19.40;99.90
14741;DHT22;7462;53.530;9.414;2022-08-19T06:21:19;19.30;99.90
14741;DHT22;7462;53.530;9.414;2022-08-19T06:23:48;19.40;99.90
14741;DHT22;7462;53.530;9.414;2022-08-19T06:26:19;19.30;99.90
14741;DHT22;7462;53.530;9.414;2022-08-19T06:28:47;19.30;99.90
14741;DHT22;7462;53.530;9.414;2022-08-19T06:31:17;19.30;99.90
14741;DHT22;7462;53.530;9.414;2022-08-19T06:33:47;19.40;99.90
14741;DHT22;7462;53.530;9.414;2022-08-19T06:36:19;19.30;99.90
14741;DHT22;7462;53.530;9.414;2022-08-19T06:38:51;19.40;99.90
14741;DHT22;7462;53.530;9.414;2022-08-19T06:41:21;19.40;99.90
14741;DHT22;7462;53.530;9.414;2022-08-19T06:43:49;19.40;99.90
14741;DHT22;7462;53.530;9.414;2022-08-19T06:46:22;19.50;99.90
14741;DHT22;7462;53.530;9.414;2022-08-19T06:48:51;19.50;99.90
14741;DHT22;7462;53.530;9.414;2022-08-19T06:51:21;19.40;99.90
14741;DHT22;7462;53.530;9.414;2022-08-19T06:53:52;19.40;99.90
14741;DHT22;7462;53.530;9.414;2022-08-19T06:56:25;19.30;99.90
14741;DHT22;7462;53.530;9.414;2022-08-19T06:58:57;19.20;99.90
14741;DHT22;7462;53.530;9.414;2022-08-19T07:01:26;19.20;99.90
14741;DHT22;7462;53.530;9.414;2022-08-19T07:03:54;19.30;99.90
14741;DHT22;7462;53.530;9.414;2022-08-19T07:06:24;19.30;99.90
14741;DHT22;7462;53.530;9.414;2022-08-19T07:09:12;19.30;99.90
14741;DHT22;7462;53.530;9.414;2022-08-19T07:11:47;19.30;99.90
14741;DHT22;7462;53.530;9.414;2022-08-19T07:14:17;19.40;99.90
14741;DHT22;7462;53.530;9.414;2022-08-19T07:16:47;19.30;99.90
14741;DHT22;7462;53.530;9.414;2022-08-19T07:19:16;19.30;99.90
14741;DHT22;7462;53.530;9.414;2022-08-19T07:21:45;19.40;99.90
14741;DHT22;7462;53.530;9.414;2022-08-19T07:24:13;19.40;99.90
14741;DHT22;7462;53.530;9.414;2022-08-19T07:26:43;19.40;99.90
14741;DHT22;7462;53.530;9.414;2022-08-19T07:29:13;19.40;99.90
14741;DHT22;7462;53.530;9.414;2022-08-19T07:31:44;19.40;99.90
14741;DHT22;7462;53.530;9.414;2022-08-19T07:34:12;19.50;99.90
14741;DHT22;7462;53.530;9.414;2022-08-19T07:36:44;19.50;99.90
14741;DHT22;7462;53.530;9.414;2022-08-19T07:39:15;19.50;99.90
14741;DHT22;7462;53.530;9.414;2022-08-19T07:41:44;19.50;99.90
14741;DHT22;7462;53.530;9.414;2022-08-19T07:44:15;19.50;99.90
14741;DHT22;7462;53.530;9.414;2022-08-19T07:46:45;19.60;99.90
14741;DHT22;7462;53.530;9.414;2022-08-19T07:49:17;19.50;99.90
14741;DHT22;7462;53.530;9.414;2022-08-19T07:51:47;19.50;99.90
14741;DHT22;7462;53.530;9.414;2022-08-19T07:54:16;19.50;99.90
14741;DHT22;7462;53.530;9.414;2022-08-19T07:56:44;19.50;99.90
14741;DHT22;7462;53.530;9.414;2022-08-19T07:59:14;19.50;99.90
14741;DHT22;7462;53.530;9.414;2022-08-19T08:01:44;19.50;99.90
14741;DHT22;7462;53.530;9.414;2022-08-19T08:04:13;19.40;99.90
14741;DHT22;7462;53.530;9.414;2022-08-19T08:06:59;19.50;99.90
14741;DHT22;7462;53.530;9.414;2022-08-19T08:09:45;19.50;99.90
14741;DHT22;7462;53.530;9.414;2022-08-19T08:12:18;19.60;99.90
14741;DHT22;7462;53.530;9.414;2022-08-19T08:15:07;19.60;99.90
14741;DHT22;7462;53.530;9.414;2022-08-19T08:17:38;19.60;99.90
14741;DHT22;7462;53.530;9.414;2022-08-19T08:20:18;19.50;99.90
14741;DHT22;7462;53.530;9.414;2022-08-19T08:22:47;19.60;99.90
14741;DHT22;7462;53.530;9.414;2022-08-19T08:25:33;19.70;99.90
14741;DHT22;7462;53.530;9.414;2022-08-19T08:28:03;20.00;99.90
14741;DHT22;7462;53.530;9.414;2022-08-19T08:30:32;20.10;99.90
14741;DHT22;7462;53.530;9.414;2022-08-19T08:33:03;20.20;99.90
14741;DHT22;7462;53.530;9.414;2022-08-19T08:35:32;20.30;99.90
14741;DHT22;7462;53.530;9.414;2022-08-19T08:38:03;20.50;99.90
14741;DHT22;7462;53.530;9.414;2022-08-19T08:40:38;20.80;99.90
14741;DHT22;7462;53.530;9.414;2022-08-19T08:43:09;21.10;99.90
14741;DHT22;7462;53.530;9.414;2022-08-19T08:45:47;21.50;99.90
14741;DHT22;7462;53.530;9.414;2022-08-19T08:48:24;21.80;99.90
14741;DHT22;7462;53.530;9.414;2022-08-19T08:50:53;22.00;99.90
14741;DHT22;7462;53.530;9.414;2022-08-19T08:53:23;22.10;99.90
14741;DHT22;7462;53.530;9.414;2022-08-19T08:55:55;22.20;99.90
14741;DHT22;7462;53.530;9.414;2022-08-19T08:58:29;22.20;99.90
14741;DHT22;7462;53.530;9.414;2022-08-19T09:01:00;22.30;99.90
14741;DHT22;7462;53.530;9.414;2022-08-19T09:03:28;22.30;99.90
14741;DHT22;7462;53.530;9.414;2022-08-19T09:06:01;22.40;99.90
14741;DHT22;7462;53.530;9.414;2022-08-19T09:08:40;22.40;99.90
14741;DHT22;7462;53.530;9.414;2022-08-19T09:11:15;22.50;99.90
14741;DHT22;7462;53.530;9.414;2022-08-19T09:14:18;22.50;99.90
14741;DHT22;7462;53.530;9.414;2022-08-19T09:17:14;22.50;99.90
14741;DHT22;7462;53.530;9.414;2022-08-19T09:19:53;22.50;99.90
14741;DHT22;7462;53.530;9.414;2022-08-19T09:22:22;22.40;99.90
14741;DHT22;7462;53.530;9.414;2022-08-19T09:24:53;22.40;99.90
14741;DHT22;7462;53.530;9.414;2022-08-19T09:27:23;22.30;99.90
14741;DHT22;7462;53.530;9.414;2022-08-19T09:30:12;22.40;99.90
14741;DHT22;7462;53.530;9.414;2022-08-19T09:32:43;22.50;99.90
14741;DHT22;7462;53.530;9.414;2022-08-19T09:35:13;22.60;99.90
14741;DHT22;7462;53.530;9.414;2022-08-19T09:37:42;22.90;99.90
14741;DHT22;7462;53.530;9.414;2022-08-19T09:40:12;23.20;99.90
14741;DHT22;7462;53.530;9.414;2022-08-19T09:42:42;23.40;99.90
14741;DHT22;7462;53.530;9.414;2022-08-19T09:45:17;23.50;99.90
14741;DHT22;7462;53.530;9.414;2022-08-19T09:47:50;23.60;99.90
14741;DHT22;7462;53.530;9.414;2022-08-19T09:50:21;23.60;99.90
14741;DHT22;7462;53.530;9.414;2022-08-19T09:52:50;23.70;99.90
14741;DHT22;7462;53.530;9.414;2022-08-19T09:55:24;24.00;99.90
14741;DHT22;7462;53.530;9.414;2022-08-19T09:58:02;24.10;99.90
14741;DHT22;7462;53.530;9.414;2022-08-19T10:00:30;24.20;99.90
14741;DHT22;7462;53.530;9.414;2022-08-19T10:03:00;24.10;99.90
14741;DHT22;7462;53.530;9.414;2022-08-19T10:05:29;24.20;99.90
14741;DHT22;7462;53.530;9.414;2022-08-19T10:08:17;24.30;99.90
14741;DHT22;7462;53.530;9.414;2022-08-19T10:10:46;24.30;99.90
14741;DHT22;7462;53.530;9.414;2022-08-19T10:13:18;24.40;99.90
14741;DHT22;7462;53.530;9.414;2022-08-19T10:15:48;24.40;99.90
14741;DHT22;7462;53.530;9.414;2022-08-19T10:18:20;24.40;99.90
14741;DHT22;7462;53.530;9.414;2022-08-19T10:20:50;24.40;99.90
14741;DHT22;7462;53.530;9.414;2022-08-19T10:23:20;24.60;99.90
14741;DHT22;7462;53.530;9.414;2022-08-19T10:25:49;24.60;99.90
14741;DHT22;7462;53.530;9.414;2022-08-19T10:28:20;24.20;99.90
14741;DHT22;7462;53.530;9.414;2022-08-19T10:30:49;24.10;99.90
14741;DHT22;7462;53.530;9.414;2022-08-19T10:33:19;24.00;99.90
14741;DHT22;7462;53.530;9.414;2022-08-19T10:36:10;24.10;99.90
14741;DHT22;7462;53.530;9.414;2022-08-19T10:38:38;24.30;99.90
14741;DHT22;7462;53.530;9.414;2022-08-19T10:41:20;24.40;99.90
14741;DHT22;7462;53.530;9.414;2022-08-19T10:43:51;24.70;99.90
14741;DHT22;7462;53.530;9.414;2022-08-19T10:46:22;24.70;99.90
14741;DHT22;7462;53.530;9.414;2022-08-19T10:48:53;24.80;99.90
14741;DHT22;7462;53.530;9.414;2022-08-19T10:51:21;24.60;99.90
14741;DHT22;7462;53.530;9.414;2022-08-19T10:54:14;24.50;99.90
14741;DHT22;7462;53.530;9.414;2022-08-19T10:56:42;24.20;99.90
14741;DHT22;7462;53.530;9.414;2022-08-19T10:59:21;24.10;99.90
14741;DHT22;7462;53.530;9.414;2022-08-19T11:01:53;24.20;99.90
14741;DHT22;7462;53.530;9.414;2022-08-19T11:04:24;24.30;99.90
14741;DHT22;7462;53.530;9.414;2022-08-19T11:06:55;24.40;99.90
14741;DHT22;7462;53.530;9.414;2022-08-19T11:09:25;24.40;99.90
14741;DHT22;7462;53.530;9.414;2022-08-19T11:12:00;24.70;99.90
14741;DHT22;7462;53.530;9.414;2022-08-19T11:14:31;24.70;99.90
14741;DHT22;7462;53.530;9.414;2022-08-19T11:17:00;24.80;99.90
14741;DHT22;7462;53.530;9.414;2022-08-19T11:19:31;24.80;99.90
14741;DHT22;7462;53.530;9.414;2022-08-19T11:22:01;24.60;99.90
14741;DHT22;7462;53.530;9.414;2022-08-19T11:24:30;24.80;99.90
14741;DHT22;7462;53.530;9.414;2022-08-19T11:27:05;25.00;99.90
14741;DHT22;7462;53.530;9.414;2022-08-19T11:29:34;25.00;99.90
14741;DHT22;7462;53.530;9.414;2022-08-19T11:32:04;25.20;99.90
14741;DHT22;7462;53.530;9.414;2022-08-19T11:34:35;25.20;99.90
14741;DHT22;7462;53.530;9.414;2022-08-19T11:37:04;25.20;99.90
14741;DHT22;7462;53.530;9.414;2022-08-19T11:39:33;25.20;99.90
14741;DHT22;7462;53.530;9.414;2022-08-19T11:42:03;25.00;99.90
14741;DHT22;7462;53.530;9.414;2022-08-19T11:44:52;24.80;99.90
14741;DHT22;7462;53.530;9.414;2022-08-19T11:47:20;24.70;99.90
14741;DHT22;7462;53.530;9.414;2022-08-19T11:49:50;24.60;99.90
14741;DHT22;7462;53.530;9.414;2022-08-19T11:52:20;24.70;99.90
14741;DHT22;7462;53.530;9.414;2022-08-19T11:54:48;24.80;99.90
14741;DHT22;7462;53.530;9.414;2022-08-19T11:57:16;24.70;99.90
14741;DHT22;7462;53.530;9.414;2022-08-19T11:59:48;24.70;99.90
14741;DHT22;7462;53.530;9.414;2022-08-19T12:02:17;24.70;99.90
14741;DHT22;7462;53.530;9.414;2022-08-19T12:04:45;24.80;99.90
14741;DHT22;7462;53.530;9.414;2022-08-19T12:07:15;24.90;99.90
14741;DHT22;7462;53.530;9.414;2022-08-19T12:09:43;25.00;99.90
14741;DHT22;7462;53.530;9.414;2022-08-19T12:12:14;25.10;99.90
14741;DHT22;7462;53.530;9.414;2022-08-19T12:14:42;25.20;99.90
14741;DHT22;7462;53.530;9.414;2022-08-19T12:17:11;25.30;99.90
14741;DHT22;7462;53.530;9.414;2022-08-19T12:19:40;25.30;99.90
14741;DHT22;7462;53.530;9.414;2022-08-19T12:22:08;25.30;99.90
14741;DHT22;7462;53.530;9.414;2022-08-19T12:24:37;25.20;99.90
14741;DHT22;7462;53.530;9.414;2022-08-19T12:27:05;25.20;99.90
14741;DHT22;7462;53.530;9.414;2022-08-19T12:29:38;24.90;99.90
14741;DHT22;7462;53.530;9.414;2022-08-19T12:32:08;24.80;99.90
14741;DHT22;7462;53.530;9.414;2022-08-19T12:34:38;24.80;99.90
14741;DHT22;7462;53.530;9.414;2022-08-19T12:37:07;24.80;99.90
14741;DHT22;7462;53.530;9.414;2022-08-19T12:39:39;25.00;99.90
14741;DHT22;7462;53.530;9.414;2022-08-19T12:42:09;25.10;99.90
14741;DHT22;7462;53.530;9.414;2022-08-19T12:44:38;25.10;99.90
14741;DHT22;7462;53.530;9.414;2022-08-19T12:47:10;25.20;99.90
14741;DHT22;7462;53.530;9.414;2022-08-19T12:49:38;25.40;99.90
14741;DHT22;7462;53.530;9.414;2022-08-19T12:52:22;25.50;99.90
14741;DHT22;7462;53.530;9.414;2022-08-19T12:54:52;25.40;99.90
14741;DHT22;7462;53.530;9.414;2022-08-19T12:57:22;25.50;99.90
14741;DHT22;7462;53.530;9.414;2022-08-19T13:00:00;25.60;99.90
14741;DHT22;7462;53.530;9.414;2022-08-19T13:02:31;25.60;99.90
14741;DHT22;7462;53.530;9.414;2022-08-19T13:05:06;25.40;99.90
14741;DHT22;7462;53.530;9.414;2022-08-19T13:07:36;25.50;99.90
14741;DHT22;7462;53.530;9.414;2022-08-19T13:10:09;25.40;99.90
14741;DHT22;7462;53.530;9.414;2022-08-19T13:12:39;25.50;99.90
14741;DHT22;7462;53.530;9.414;2022-08-19T13:15:09;25.40;99.90
14741;DHT22;7462;53.530;9.414;2022-08-19T13:17:39;25.40;99.90
14741;DHT22;7462;53.530;9.414;2022-08-19T13:20:09;25.50;99.90
14741;DHT22;7462;53.530;9.414;2022-08-19T13:22:38;25.40;99.90
14741;DHT22;7462;53.530;9.414;2022-08-19T13:25:08;25.20;99.90
14741;DHT22;7462;53.530;9.414;2022-08-19T13:27:37;25.30;99.90
14741;DHT22;7462;53.530;9.414;2022-08-19T13:30:07;25.30;99.90
14741;DHT22;7462;53.530;9.414;2022-08-19T13:32:53;25.40;99.90
14741;DHT22;7462;53.530;9.414;2022-08-19T13:35:45;25.60;99.90
14741;DHT22;7462;53.530;9.414;2022-08-19T13:38:15;25.60;99.90
14741;DHT22;7462;53.530;9.414;2022-08-19T13:40:45;25.60;99.90
14741;DHT22;7462;53.530;9.414;2022-08-19T13:43:14;25.60;99.90
14741;DHT22;7462;53.530;9.414;2022-08-19T13:45:50;25.80;99.90
14741;DHT22;7462;53.530;9.414;2022-08-19T13:48:24;26.00;99.90
14741;DHT22;7462;53.530;9.414;2022-08-19T13:50:53;26.10;99.90
14741;DHT22;7462;53.530;9.414;2022-08-19T13:53:22;25.60;99.90
14741;DHT22;7462;53.530;9.414;2022-08-19T13:55:52;25.50;99.90
14741;DHT22;7462;53.530;9.414;2022-08-19T13:58:21;25.50;99.90
14741;DHT22;7462;53.530;9.414;2022-08-19T14:00:49;25.40;99.90
14741;DHT22;7462;53.530;9.414;2022-08-19T14:03:17;25.30;99.90
14741;DHT22;7462;53.530;9.414;2022-08-19T14:05:45;25.10;99.90
14741;DHT22;7462;53.530;9.414;2022-08-19T14:08:14;25.00;99.90
14741;DHT22;7462;53.530;9.414;2022-08-19T14:10:42;24.90;99.90
14741;DHT22;7462;53.530;9.414;2022-08-19T14:13:15;24.80;99.90
14741;DHT22;7462;53.530;9.414;2022-08-19T14:15:44;24.70;99.90
14741;DHT22;7462;53.530;9.414;2022-08-19T14:18:14;24.80;99.90
14741;DHT22;7462;53.530;9.414;2022-08-19T14:20:43;24.80;99.90
14741;DHT22;7462;53.530;9.414;2022-08-19T14:23:11;24.80;99.90
14741;DHT22;7462;53.530;9.414;2022-08-19T14:25:40;24.80;99.90
14741;DHT22;7462;53.530;9.414;2022-08-19T14:28:08;24.70;99.90
14741;DHT22;7462;53.530;9.414;2022-08-19T14:30:38;24.70;99.90
14741;DHT22;7462;53.530;9.414;2022-08-19T14:33:06;24.80;99.90
14741;DHT22;7462;53.530;9.414;2022-08-19T14:35:36;24.80;99.90
14741;DHT22;7462;53.530;9.414;2022-08-19T14:38:06;24.70;99.90
14741;DHT22;7462;53.530;9.414;2022-08-19T14:40:43;24.80;99.90
14741;DHT22;7462;53.530;9.414;2022-08-19T14:43:12;24.80;99.90
14741;DHT22;7462;53.530;9.414;2022-08-19T14:45:45;24.90;99.90
14741;DHT22;7462;53.530;9.414;2022-08-19T14:48:15;25.00;99.90
14741;DHT22;7462;53.530;9.414;2022-08-19T14:50:46;25.00;99.90
14741;DHT22;7462;53.530;9.414;2022-08-19T14:53:16;25.00;99.90
14741;DHT22;7462;53.530;9.414;2022-08-19T14:55:45;25.00;99.90
14741;DHT22;7462;53.530;9.414;2022-08-19T14:58:14;25.10;99.90
14741;DHT22;7462;53.530;9.414;2022-08-19T15:00:58;25.10;99.90
14741;DHT22;7462;53.530;9.414;2022-08-19T15:03:27;25.10;99.90
14741;DHT22;7462;53.530;9.414;2022-08-19T15:05:55;25.00;99.90
14741;DHT22;7462;53.530;9.414;2022-08-19T15:08:24;25.00;99.90
14741;DHT22;7462;53.530;9.414;2022-08-19T15:10:53;24.80;99.90
14741;DHT22;7462;53.530;9.414;2022-08-19T15:13:21;24.70;99.90
14741;DHT22;7462;53.530;9.414;2022-08-19T15:15:51;24.80;99.90
14741;DHT22;7462;53.530;9.414;2022-08-19T15:18:21;24.80;99.90
14741;DHT22;7462;53.530;9.414;2022-08-19T15:20:49;24.80;99.90
14741;DHT22;7462;53.530;9.414;2022-08-19T15:23:19;24.80;99.90
14741;DHT22;7462;53.530;9.414;2022-08-19T15:25:48;24.80;99.90
14741;DHT22;7462;53.530;9.414;2022-08-19T15:28:18;24.70;99.90
14741;DHT22;7462;53.530;9.414;2022-08-19T15:30:46;24.60;99.90
14741;DHT22;7462;53.530;9.414;2022-08-19T15:33:15;24.60;99.90
14741;DHT22;7462;53.530;9.414;2022-08-19T15:35:46;24.60;99.90
14741;DHT22;7462;53.530;9.414;2022-08-19T15:38:16;24.60;99.90
14741;DHT22;7462;53.530;9.414;2022-08-19T15:40:48;24.50;99.90
14741;DHT22;7462;53.530;9.414;2022-08-19T15:43:18;24.50;99.90
14741;DHT22;7462;53.530;9.414;2022-08-19T15:45:48;24.40;99.90
14741;DHT22;7462;53.530;9.414;2022-08-19T15:48:16;24.30;99.90
14741;DHT22;7462;53.530;9.414;2022-08-19T15:50:45;24.30;99.90
14741;DHT22;7462;53.530;9.414;2022-08-19T15:53:13;24.20;99.90
14741;DHT22;7462;53.530;9.414;2022-08-19T15:55:44;24.20;99.90
14741;DHT22;7462;53.530;9.414;2022-08-19T15:58:14;24.20;99.90
14741;DHT22;7462;53.530;9.414;2022-08-19T16:01:02;24.20;99.90
14741;DHT22;7462;53.530;9.414;2022-08-19T16:03:50;24.20;99.90
14741;DHT22;7462;53.530;9.414;2022-08-19T16:06:44;24.20;99.90
14741;DHT22;7462;53.530;9.414;2022-08-19T16:09:14;24.10;99.90
14741;DHT22;7462;53.530;9.414;2022-08-19T16:11:42;24.00;99.90
14741;DHT22;7462;53.530;9.414;2022-08-19T16:14:12;24.00;99.90